Tuesday, October 17, 2017, 2:56 PM EDT
Back to Local

KUUU, Newport State Airport

Location: Middletown, RI, United States Lat: 41.533
Local Time: 2:56 PM EDT (18:56 GMT) Lon: -71.283
Time Zone: US/Eastern Elev: 170 ft

Show me the last for .
Show Decoded

2017-10-17 13:53 METAR KUUU 171753Z AUTO 28006KT 10SM CLR 12/01 A3026 RMK AO2 SLP247 T01170011
                 10117 20061 58008 =
2017-10-17 12:53 METAR KUUU 171653Z AUTO VRB03KT 10SM CLR 12/01 A3027 RMK AO2 SLP248 T01170006 =
2017-10-17 11:53 METAR KUUU 171553Z AUTO 01008KT 10SM CLR 11/01 A3028 RMK AO2 SLP253 T01110011 =
2017-10-17 10:53 METAR KUUU 171453Z AUTO 01007KT 340V050 10SM CLR 10/02 A3028 RMK AO2 SLP254
                 T01000017 50004 =
2017-10-17 09:53 METAR KUUU 171353Z AUTO 01012KT 10SM CLR 09/02 A3029 RMK AO2 SLP257 T00890022 =
2017-10-17 08:53 METAR KUUU 171253Z AUTO 35010KT 10SM CLR 07/02 A3029 RMK AO2 SLP256 T00720022 =
2017-10-17 07:53 METAR KUUU 171153Z AUTO 01010G15KT 10SM CLR 06/02 A3027 RMK AO2 SLP250 T00610017
                 10072 20050 53021 =
2017-10-17 06:53 METAR KUUU 171053Z AUTO 36008KT 10SM CLR 06/02 A3024 RMK AO2 SLP239 T00560017 =
2017-10-17 05:53 METAR KUUU 170953Z AUTO 35010KT 10SM CLR 06/02 A3023 RMK AO2 SLP235 T00610017 =
2017-10-17 04:53 METAR KUUU 170853Z AUTO 36011G21KT 10SM CLR 06/01 A3021 RMK AO2 SLP228 T00610011
                 53018 =
2017-10-17 03:53 METAR KUUU 170753Z AUTO 34006KT 10SM CLR 06/02 A3019 RMK AO2 SLP222 T00610017 =
2017-10-17 02:53 METAR KUUU 170653Z AUTO 34010G18KT 10SM CLR 07/02 A3017 RMK AO2 SLP215 T00670017
                 =
2017-10-17 01:53 METAR KUUU 170553Z AUTO 36013G19KT 10SM CLR 07/01 A3015 RMK AO2 SLP210 T00720011
                 10106 20067 51010 =
2017-10-17 00:53 METAR KUUU 170453Z AUTO 36010G17KT 10SM CLR 07/01 A3015 RMK AO2 SLP209 T00720011
                 401940072 =
2017-10-16 23:53 METAR KUUU 170353Z AUTO 36010G17KT 10SM CLR 08/02 A3014 RMK AO2 SLP206 T00780017
                 =
2017-10-16 22:53 METAR KUUU 170253Z AUTO 36013G21KT 10SM CLR 08/03 A3013 RMK AO2 SLP201 T00830028
                 53022 =
2017-10-16 21:53 METAR KUUU 170153Z AUTO 36011G17KT 10SM CLR 09/04 A3010 RMK AO2 SLP192 T00940039
                 =
2017-10-16 20:53 METAR KUUU 170053Z AUTO 36009G17KT 10SM CLR 10/04 A3008 RMK AO2 SLP185 T01000039
                 =
2017-10-16 19:53 METAR KUUU 162353Z AUTO 33014G22KT 10SM FEW036 11/04 A3006 RMK AO2 SLP178
                 T01060039 10144 20106 53027 =
2017-10-16 18:53 METAR KUUU 162253Z AUTO 32009G17KT 10SM SCT035 11/05 A3003 RMK AO2 SLP169
                 T01110050 =
2017-10-16 17:53 METAR KUUU 162153Z AUTO 33013G19KT 10SM CLR 12/06 A3000 RMK AO2 SLP157 T01170056
                 =
2017-10-16 16:53 METAR KUUU 162053Z AUTO 33012G18KT 10SM FEW043 13/06 A2998 RMK AO2 SLP150
                 T01280061 53023 =
2017-10-16 15:53 METAR KUUU 161953Z AUTO 33009G16KT 10SM SCT043 13/07 A2996 RMK AO2 SLP143
                 T01330067 =

Support USWX by starting your Amazon purchase here.